Edgewood, Minnesota
Current Conditions -  °F | °C
As of 4:55 AM on Sunday 23 Nov 2014 (Local Time) from KCBG Reporting Station
Haze Haze  
Wind Chill: 42°   Ceiling: 100
Heat Index: 45°   Visibility: 0.25mi
Dew Point: 37°   Wind: 5mph
Humidity: 76%   Direction: 150°SSE
Pressure: 29.4"   Gusts: NA
Location:  45.5649°N, 93.3413°W
Report Text: KCBG 231055Z AUTO 15004KT 1/4SM HZ OVC001 07/03 A2940 RMK AO2
Loading
Personal Weather Stations






























Interactive Weather Map New forecast layout! Learn more

10-Day Weather Forecast

Advertisements
Track Severe Weather on mobile